Time;durP1;ratioP1;P1;durP2;ratioP2;P2;SDS_P1;SDS_P2;PMS_P1;PMS_P2;Temp;Humidity;BMP_temperature;BMP_pressure;BME280_temperature;BME280_humidity;BME280_pressure;Samples;Min_cycle;Max_cycle;Signal;HPM_P1;HPM_P2
2022/11/14 00:00:22;;;;;;;;;;;4.70;86.30;;;;;;5011024;28;19927;-73
2022/11/14 00:02:47;;;;;;;;;;;4.70;86.40;;;;;;5001292;28;19929;-73
2022/11/14 00:05:13;;;;;;;;;;;4.70;86.50;;;;;;5010338;28;19922;-73
2022/11/14 00:07:38;;;;;;;;;;;4.70;86.50;;;;;;5008567;28;20005;-73
2022/11/14 00:10:04;;;;;;;;;;;4.70;86.50;;;;;;5022958;28;19917;-74
2022/11/14 00:12:29;;;;;;;;;;;4.70;86.50;;;;;;5004301;28;19926;-73
2022/11/14 00:14:55;;;;;;;;;;;4.70;86.50;;;;;;5006564;28;19925;-72
2022/11/14 00:17:20;;;;;;;;;;;4.70;86.50;;;;;;5002752;28;20589;-73
2022/11/14 00:19:46;;;;;;;;;;;4.70;86.50;;;;;;5008075;28;20025;-73
2022/11/14 00:22:11;;;;;;;;;;;4.60;86.40;;;;;;4999596;28;20528;-73
2022/11/14 00:24:37;;;;;;;;;;;4.60;86.40;;;;;;5005074;28;19918;-73
2022/11/14 00:27:02;;;;;;;;;;;4.60;86.50;;;;;;5003240;28;21034;-72
2022/11/14 00:29:28;;;;;;;;;;;4.60;86.50;;;;;;5021242;28;19925;-72
2022/11/14 00:31:53;;;;;;;;;;;4.60;86.60;;;;;;5022652;28;20004;-73
2022/11/14 00:34:19;;;;;;;;;;;4.60;86.60;;;;;;5019591;28;19979;-73
2022/11/14 00:36:44;;;;;;;;;;;4.50;86.50;;;;;;5005967;28;19947;-73
2022/11/14 00:39:11;;;;;;;;;;;4.50;86.40;;;;;;5008075;28;19926;-72
2022/11/14 00:41:36;;;;;;;;;;;4.50;86.40;;;;;;5009329;28;19964;-73
2022/11/14 00:44:01;;;;;;;;;;;4.40;86.40;;;;;;5007622;28;20420;-74
2022/11/14 00:46:27;;;;;;;;;;;4.40;86.30;;;;;;5025237;28;19925;-71
2022/11/14 00:48:52;;;;;;;;;;;4.30;86.20;;;;;;5018554;28;19946;-72
2022/11/14 00:51:18;;;;;;;;;;;4.30;86.30;;;;;;5008329;28;19921;-72
2022/11/14 00:53:43;;;;;;;;;;;4.20;87.20;;;;;;5007501;28;19929;-73
2022/11/14 00:56:09;;;;;;;;;;;4.20;86.50;;;;;;5021311;28;19945;-71
2022/11/14 00:58:35;;;;;;;;;;;4.20;86.50;;;;;;4990335;28;20365;-72
2022/11/14 01:01:00;;;;;;;;;;;4.10;86.50;;;;;;4990666;28;19917;-72
2022/11/14 01:03:25;;;;;;;;;;;4.10;86.60;;;;;;5008183;28;19921;-72
2022/11/14 01:05:51;;;;;;;;;;;4.10;86.70;;;;;;5006577;28;20005;-72
2022/11/14 01:08:17;;;;;;;;;;;4.10;86.80;;;;;;5020135;28;19948;-73
2022/11/14 01:10:44;;;;;;;;;;;4.00;86.80;;;;;;5006350;28;20470;-72
2022/11/14 01:13:10;;;;;;;;;;;4.00;86.80;;;;;;4999974;28;19917;-73
2022/11/14 01:15:43;;;;;;;;;;;4.00;86.80;;;;;;4989414;28;19970;-73
2022/11/14 01:18:12;;;;;;;;;;;4.00;86.90;;;;;;5019653;28;19925;-72
2022/11/14 01:20:39;;;;;;;;;;;4.00;86.90;;;;;;5002345;28;19925;-71
2022/11/14 01:23:05;;;;;;;;;;;4.00;86.80;;;;;;5003774;28;20305;-72
2022/11/14 01:25:31;;;;;;;;;;;4.00;86.80;;;;;;5004445;28;20421;-72
2022/11/14 01:27:57;;;;;;;;;;;4.00;86.80;;;;;;5009392;28;19921;-71
2022/11/14 01:30:22;;;;;;;;;;;4.10;86.90;;;;;;5003353;28;19932;-72
2022/11/14 01:32:48;;;;;;;;;;;4.10;86.80;;;;;;5022938;28;20687;-73
2022/11/14 01:35:13;;;;;;;;;;;4.00;86.80;;;;;;5021584;28;19944;-72
2022/11/14 01:37:39;;;;;;;;;;;4.00;86.80;;;;;;5017630;28;21561;-72
2022/11/14 01:40:04;;;;;;;;;;;4.00;86.80;;;;;;5017897;28;19921;-71
2022/11/14 01:42:30;;;;;;;;;;;4.00;86.90;;;;;;5019069;28;20418;-71
2022/11/14 01:44:55;;;;;;;;;;;4.00;86.90;;;;;;5017516;28;19917;-72
2022/11/14 01:47:22;;;;;;;;;;;4.00;86.90;;;;;;5005039;28;20371;-74
2022/11/14 01:49:49;;;;;;;;;;;4.00;86.90;;;;;;5008018;28;19921;-73
2022/11/14 01:52:21;;;;;;;;;;;4.00;86.90;;;;;;5010634;28;19921;-73
2022/11/14 01:54:48;;;;;;;;;;;3.90;86.90;;;;;;5009046;28;19928;-73
2022/11/14 01:57:13;;;;;;;;;;;3.90;86.70;;;;;;5021979;28;20007;-73
2022/11/14 01:59:40;;;;;;;;;;;3.90;86.70;;;;;;5004619;28;20008;-74
2022/11/14 02:02:07;;;;;;;;;;;3.80;86.70;;;;;;5008462;28;20545;-74
2022/11/14 02:04:34;;;;;;;;;;;3.80;86.80;;;;;;5003916;28;19940;-72
2022/11/14 02:07:00;;;;;;;;;;;3.80;86.80;;;;;;5012325;28;19921;-73
2022/11/14 02:09:26;;;;;;;;;;;3.70;86.80;;;;;;4988830;28;19921;-74
2022/11/14 02:11:52;;;;;;;;;;;3.70;86.90;;;;;;5006207;28;19960;-73
2022/11/14 02:14:17;;;;;;;;;;;3.70;86.90;;;;;;5001315;28;19960;-73
2022/11/14 02:16:43;;;;;;;;;;;3.70;86.90;;;;;;5023535;28;20051;-73
2022/11/14 02:19:08;;;;;;;;;;;3.70;87.00;;;;;;5009677;28;19925;-73
2022/11/14 02:21:34;;;;;;;;;;;3.70;87.00;;;;;;5010588;28;19965;-73
2022/11/14 02:23:59;;;;;;;;;;;3.70;87.10;;;;;;5022213;28;19966;-73
2022/11/14 02:26:25;;;;;;;;;;;3.70;87.00;;;;;;5020285;28;19986;-74
2022/11/14 02:28:50;;;;;;;;;;;3.70;87.00;;;;;;5003507;28;19927;-73
2022/11/14 02:31:16;;;;;;;;;;;3.60;87.00;;;;;;5020755;28;20045;-73
2022/11/14 02:33:41;;;;;;;;;;;3.60;87.10;;;;;;5021243;28;20270;-73
2022/11/14 02:36:07;;;;;;;;;;;3.60;87.00;;;;;;5008491;28;19921;-73
2022/11/14 02:38:33;;;;;;;;;;;3.60;87.00;;;;;;4986580;28;20020;-73
2022/11/14 02:40:58;;;;;;;;;;;3.60;87.00;;;;;;4993063;28;19920;-73
2022/11/14 02:43:24;;;;;;;;;;;3.60;87.10;;;;;;4994887;28;19917;-73
2022/11/14 02:45:49;;;;;;;;;;;3.60;87.20;;;;;;5020240;28;19964;-73
2022/11/14 02:48:15;;;;;;;;;;;3.60;87.20;;;;;;5006628;28;19917;-75
2022/11/14 02:50:40;;;;;;;;;;;3.60;87.90;;;;;;5023602;28;20008;-73
2022/11/14 02:53:06;;;;;;;;;;;3.60;87.20;;;;;;5006730;28;19924;-73
2022/11/14 02:55:31;;;;;;;;;;;3.60;87.20;;;;;;5020687;28;20923;-73
2022/11/14 02:57:57;;;;;;;;;;;3.60;87.10;;;;;;5012497;28;19917;-73
2022/11/14 03:00:22;;;;;;;;;;;3.60;87.20;;;;;;5005258;28;19933;-73
2022/11/14 03:02:48;;;;;;;;;;;3.60;87.20;;;;;;5004166;28;19935;-73
2022/11/14 03:05:13;;;;;;;;;;;3.60;87.20;;;;;;5003082;28;20321;-74
2022/11/14 03:07:39;;;;;;;;;;;3.60;87.00;;;;;;4990706;28;20005;-72
2022/11/14 03:10:04;;;;;;;;;;;3.50;87.00;;;;;;5005721;28;19933;-73
2022/11/14 03:12:30;;;;;;;;;;;3.50;87.00;;;;;;5003994;28;19928;-73
2022/11/14 03:14:55;;;;;;;;;;;3.40;86.90;;;;;;5012179;28;19987;-73
2022/11/14 03:17:23;;;;;;;;;;;3.40;87.00;;;;;;5027238;28;19925;-74
2022/11/14 03:19:49;;;;;;;;;;;3.40;87.10;;;;;;5010292;28;19929;-73
2022/11/14 03:22:14;;;;;;;;;;;3.40;87.10;;;;;;5024189;28;20075;-74
2022/11/14 03:24:39;;;;;;;;;;;3.30;87.10;;;;;;5025628;28;19917;-74
2022/11/14 03:27:05;;;;;;;;;;;3.30;87.10;;;;;;5023216;28;19936;-73
2022/11/14 03:29:30;;;;;;;;;;;3.30;87.10;;;;;;5010376;28;19968;-73
2022/11/14 03:31:56;;;;;;;;;;;3.20;87.20;;;;;;5011377;28;20144;-74
2022/11/14 03:34:21;;;;;;;;;;;3.20;87.20;;;;;;5006764;28;19921;-73
2022/11/14 03:36:47;;;;;;;;;;;3.20;87.30;;;;;;5012879;28;19917;-73
2022/11/14 03:39:12;;;;;;;;;;;3.20;87.30;;;;;;5010162;28;19923;-73
2022/11/14 03:41:38;;;;;;;;;;;3.20;87.40;;;;;;5013956;28;20412;-73
2022/11/14 03:44:03;;;;;;;;;;;3.20;87.20;;;;;;5009856;28;19925;-74
2022/11/14 03:46:28;;;;;;;;;;;3.10;87.20;;;;;;5008083;28;19925;-73
2022/11/14 03:48:54;;;;;;;;;;;3.10;87.20;;;;;;5007045;28;19943;-73
2022/11/14 03:51:19;;;;;;;;;;;3.10;87.40;;;;;;5028517;28;19944;-73
2022/11/14 03:53:45;;;;;;;;;;;3.10;87.40;;;;;;5004283;28;19929;-74
2022/11/14 03:56:10;;;;;;;;;;;3.10;87.30;;;;;;5013049;28;19928;-73
2022/11/14 03:58:36;;;;;;;;;;;3.10;87.30;;;;;;5021499;28;19943;-73
2022/11/14 04:01:02;;;;;;;;;;;3.10;87.30;;;;;;5027090;28;19921;-73
2022/11/14 04:03:28;;;;;;;;;;;3.10;87.40;;;;;;5023060;28;19924;-73
2022/11/14 04:05:53;;;;;;;;;;;3.10;87.40;;;;;;5021252;28;19917;-72
2022/11/14 04:08:19;;;;;;;;;;;3.10;87.40;;;;;;5020383;28;19927;-73
2022/11/14 04:10:47;;;;;;;;;;;3.10;87.40;;;;;;5013894;28;19970;-73
2022/11/14 04:13:13;;;;;;;;;;;3.10;87.30;;;;;;5027332;28;19921;-73
2022/11/14 04:15:38;;;;;;;;;;;3.10;87.40;;;;;;5014195;28;20459;-72
2022/11/14 04:18:04;;;;;;;;;;;3.10;87.40;;;;;;4999272;28;19925;-74
2022/11/14 04:20:29;;;;;;;;;;;3.10;87.50;;;;;;5014559;28;19925;-74
2022/11/14 04:22:55;;;;;;;;;;;3.10;87.50;;;;;;5012621;28;19925;-73
2022/11/14 04:25:20;;;;;;;;;;;3.10;87.50;;;;;;5023094;28;20019;-74
2022/11/14 04:27:45;;;;;;;;;;;3.10;87.50;;;;;;5008362;28;20076;-73
2022/11/14 04:30:11;;;;;;;;;;;3.00;87.40;;;;;;5014764;28;19917;-73
2022/11/14 04:32:36;;;;;;;;;;;3.00;87.30;;;;;;5001074;28;19932;-73
2022/11/14 04:35:02;;;;;;;;;;;3.00;87.40;;;;;;5023330;28;19939;-73
2022/11/14 04:37:27;;;;;;;;;;;3.00;87.30;;;;;;5007796;28;19932;-73
2022/11/14 04:39:57;;;;;;;;;;;2.90;87.30;;;;;;5022517;28;19928;-73
2022/11/14 04:42:23;;;;;;;;;;;2.90;87.40;;;;;;5023293;28;19937;-73
2022/11/14 04:44:49;;;;;;;;;;;2.90;87.50;;;;;;5023779;28;19925;-74
2022/11/14 04:47:14;;;;;;;;;;;3.00;87.60;;;;;;5024114;28;20008;-74
2022/11/14 04:49:40;;;;;;;;;;;3.00;87.60;;;;;;5023965;28;20483;-74
2022/11/14 04:52:05;;;;;;;;;;;3.00;87.70;;;;;;5023903;28;19931;-72
2022/11/14 04:54:31;;;;;;;;;;;3.00;87.70;;;;;;5004153;28;19917;-73
2022/11/14 04:56:56;;;;;;;;;;;3.00;87.50;;;;;;5022061;28;19948;-72
2022/11/14 04:59:21;;;;;;;;;;;3.00;87.50;;;;;;5022244;28;21878;-73
2022/11/14 05:01:47;;;;;;;;;;;3.10;87.60;;;;;;5005907;28;19921;-73
2022/11/14 05:04:12;;;;;;;;;;;3.00;87.60;;;;;;5005944;28;19917;-72
2022/11/14 05:06:40;;;;;;;;;;;3.10;87.60;;;;;;5019342;28;25749;-73
2022/11/14 05:09:05;;;;;;;;;;;3.10;87.60;;;;;;5005417;28;20012;-73
2022/11/14 05:11:31;;;;;;;;;;;3.10;87.60;;;;;;5019443;28;19930;-72
2022/11/14 05:13:56;;;;;;;;;;;3.20;87.60;;;;;;5003632;28;19924;-72
2022/11/14 05:16:22;;;;;;;;;;;3.20;87.60;;;;;;5018559;28;22466;-73
2022/11/14 05:18:47;;;;;;;;;;;3.20;87.60;;;;;;5019441;28;19933;-73
2022/11/14 05:21:13;;;;;;;;;;;3.20;87.60;;;;;;5015496;28;19927;-72
2022/11/14 05:23:38;;;;;;;;;;;3.20;87.60;;;;;;5006315;28;19917;-74
2022/11/14 05:26:04;;;;;;;;;;;3.30;87.70;;;;;;4992260;28;20292;-73
2022/11/14 05:28:30;;;;;;;;;;;3.30;87.60;;;;;;5016908;28;19929;-73
2022/11/14 05:31:02;;;;;;;;;;;3.30;87.60;;;;;;5011584;28;19921;-72
2022/11/14 05:33:28;;;;;;;;;;;3.30;87.60;;;;;;5000072;28;19932;-72
2022/11/14 05:35:53;;;;;;;;;;;3.40;87.60;;;;;;5006753;28;19980;-72
2022/11/14 05:38:19;;;;;;;;;;;3.40;87.60;;;;;;5021420;28;20015;-72
2022/11/14 05:40:44;;;;;;;;;;;3.40;87.60;;;;;;5006059;28;19921;-73
2022/11/14 05:43:10;;;;;;;;;;;3.40;87.60;;;;;;5017418;28;19921;-72
2022/11/14 05:45:35;;;;;;;;;;;3.50;87.70;;;;;;5007389;28;19983;-73
2022/11/14 05:48:01;;;;;;;;;;;3.50;87.70;;;;;;4988596;28;20415;-72
2022/11/14 05:50:26;;;;;;;;;;;3.50;87.60;;;;;;5017454;28;19917;-72
2022/11/14 05:52:51;;;;;;;;;;;3.50;87.70;;;;;;5023771;28;20286;-72
2022/11/14 05:55:17;;;;;;;;;;;3.60;88.40;;;;;;5006743;28;19917;-71
2022/11/14 05:57:42;;;;;;;;;;;3.60;87.60;;;;;;5018488;28;20003;-72
2022/11/14 06:00:08;;;;;;;;;;;3.70;87.60;;;;;;5020218;28;20293;-72
2022/11/14 06:02:34;;;;;;;;;;;3.70;87.60;;;;;;5003636;28;25083;-73
2022/11/14 06:04:59;;;;;;;;;;;3.70;87.60;;;;;;5008022;28;19928;-73
2022/11/14 06:07:25;;;;;;;;;;;3.80;87.60;;;;;;5015144;28;19924;-72
2022/11/14 06:09:50;;;;;;;;;;;3.80;87.60;;;;;;5017132;28;19925;-72
2022/11/14 06:12:15;;;;;;;;;;;3.80;87.60;;;;;;5007217;28;19930;-74
2022/11/14 06:14:41;;;;;;;;;;;3.90;87.60;;;;;;5020657;28;19943;-73
2022/11/14 06:17:06;;;;;;;;;;;3.90;87.50;;;;;;5020269;28;20275;-72
2022/11/14 06:19:32;;;;;;;;;;;3.90;87.40;;;;;;5002115;28;19929;-73
2022/11/14 06:21:57;;;;;;;;;;;3.90;87.40;;;;;;5001616;28;19998;-73
2022/11/14 06:24:23;;;;;;;;;;;4.00;87.40;;;;;;5020478;28;19917;-72
2022/11/14 06:26:48;;;;;;;;;;;4.00;87.40;;;;;;5018143;28;19925;-73
2022/11/14 06:29:14;;;;;;;;;;;4.00;87.40;;;;;;4987559;28;19921;-73
2022/11/14 06:31:39;;;;;;;;;;;4.00;87.40;;;;;;5016784;28;20390;-72
2022/11/14 06:34:05;;;;;;;;;;;4.00;87.30;;;;;;5016232;28;20051;-71
2022/11/14 06:36:30;;;;;;;;;;;4.00;87.30;;;;;;5001614;28;19925;-72
2022/11/14 06:38:56;;;;;;;;;;;4.10;87.40;;;;;;5022974;28;19927;-72
2022/11/14 06:41:21;;;;;;;;;;;4.10;87.30;;;;;;5000511;28;20648;-72
2022/11/14 06:43:48;;;;;;;;;;;4.10;87.30;;;;;;5002594;28;19917;-73
2022/11/14 06:46:14;;;;;;;;;;;4.10;87.30;;;;;;5022209;28;19960;-72
2022/11/14 06:48:40;;;;;;;;;;;4.10;87.30;;;;;;5016642;28;19917;-75
2022/11/14 06:51:05;;;;;;;;;;;4.20;87.40;;;;;;5005758;28;19928;-73
2022/11/14 06:53:31;;;;;;;;;;;4.20;87.40;;;;;;5007487;28;19925;-74
2022/11/14 06:56:00;;;;;;;;;;;4.20;87.40;;;;;;5007230;28;19928;-72
2022/11/14 06:58:29;;;;;;;;;;;4.20;87.30;;;;;;5017038;28;19928;-73
2022/11/14 07:00:55;;;;;;;;;;;4.20;87.30;;;;;;5005831;28;20394;-73
2022/11/14 07:03:20;;;;;;;;;;;4.30;87.40;;;;;;5008525;28;19983;-73
2022/11/14 07:05:46;;;;;;;;;;;4.30;87.40;;;;;;5020311;28;20381;-72
2022/11/14 07:08:11;;;;;;;;;;;4.30;87.30;;;;;;5013162;28;19939;-73
2022/11/14 07:10:37;;;;;;;;;;;4.30;87.30;;;;;;5013784;28;20604;-72
2022/11/14 07:13:02;;;;;;;;;;;4.40;87.30;;;;;;5024877;28;19921;-72
2022/11/14 07:15:28;;;;;;;;;;;4.40;87.30;;;;;;5021687;28;19933;-74
2022/11/14 07:17:53;;;;;;;;;;;4.40;87.30;;;;;;5004685;28;19971;-74
2022/11/14 07:20:19;;;;;;;;;;;4.40;87.20;;;;;;5021647;28;19932;-72
2022/11/14 07:22:45;;;;;;;;;;;4.40;87.20;;;;;;5009104;28;19982;-73
2022/11/14 07:25:10;;;;;;;;;;;4.40;87.20;;;;;;5019003;28;19917;-73
2022/11/14 07:27:36;;;;;;;;;;;4.50;87.20;;;;;;5008539;28;19924;-73
2022/11/14 07:30:01;;;;;;;;;;;4.50;87.20;;;;;;5022489;28;19925;-74
2022/11/14 07:32:27;;;;;;;;;;;4.50;87.20;;;;;;5009144;28;19921;-72
2022/11/14 07:34:52;;;;;;;;;;;4.50;87.20;;;;;;5024972;28;19921;-72
2022/11/14 07:37:18;;;;;;;;;;;4.60;87.20;;;;;;5007274;28;19917;-72
2022/11/14 07:39:44;;;;;;;;;;;4.60;87.20;;;;;;4992866;28;19947;-72
2022/11/14 07:42:10;;;;;;;;;;;4.60;87.20;;;;;;5020482;28;19921;-71
2022/11/14 07:44:35;;;;;;;;;;;4.70;87.20;;;;;;5021109;28;20450;-72
2022/11/14 07:47:01;;;;;;;;;;;4.70;87.20;;;;;;5016373;28;19917;-73
2022/11/14 07:49:26;;;;;;;;;;;4.70;87.10;;;;;;5016827;28;20408;-73
2022/11/14 07:51:52;;;;;;;;;;;4.70;87.10;;;;;;5011136;28;19944;-72
2022/11/14 07:54:17;;;;;;;;;;;4.70;87.10;;;;;;5010047;28;19945;-73
2022/11/14 07:56:43;;;;;;;;;;;4.80;87.10;;;;;;5017432;28;19925;-73
2022/11/14 07:59:08;;;;;;;;;;;4.80;87.10;;;;;;5020857;28;19929;-71
2022/11/14 08:01:34;;;;;;;;;;;4.80;87.20;;;;;;5007021;28;20317;-72
2022/11/14 08:03:59;;;;;;;;;;;4.80;87.00;;;;;;5023327;28;20027;-72
2022/11/14 08:06:25;;;;;;;;;;;4.90;87.10;;;;;;4993855;28;19928;-72
2022/11/14 08:08:50;;;;;;;;;;;4.90;87.10;;;;;;5022311;28;19926;-71
2022/11/14 08:11:46;;;;;;;;;;;4.90;87.00;;;;;;5007298;28;19927;-72
2022/11/14 08:14:01;;;;;;;;;;;5.00;87.10;;;;;;5014206;28;19984;-73
2022/11/14 08:16:26;;;;;;;;;;;5.00;87.10;;;;;;5018662;28;20519;-72
2022/11/14 08:18:52;;;;;;;;;;;5.00;87.10;;;;;;5006973;28;19983;-73
2022/11/14 08:21:17;;;;;;;;;;;5.10;87.00;;;;;;5022440;28;19921;-71
2022/11/14 08:23:44;;;;;;;;;;;5.10;87.00;;;;;;5008091;28;19948;-73
2022/11/14 08:26:09;;;;;;;;;;;5.20;87.10;;;;;;5020415;28;19924;-72
2022/11/14 08:28:35;;;;;;;;;;;5.20;87.00;;;;;;5006691;28;20341;-73
2022/11/14 08:31:01;;;;;;;;;;;5.30;87.00;;;;;;5007953;28;19971;-74
2022/11/14 08:33:26;;;;;;;;;;;5.30;86.90;;;;;;5023319;28;19975;-72
2022/11/14 08:35:52;;;;;;;;;;;5.30;86.90;;;;;;5012375;28;20434;-71
2022/11/14 08:38:17;;;;;;;;;;;5.40;87.00;;;;;;5004002;28;20537;-71
2022/11/14 08:40:43;;;;;;;;;;;5.40;86.90;;;;;;5005452;28;19929;-72
2022/11/14 08:43:10;;;;;;;;;;;5.40;86.80;;;;;;5022664;28;19925;-72
2022/11/14 08:45:35;;;;;;;;;;;5.50;86.80;;;;;;4993676;28;20377;-72
2022/11/14 08:48:01;;;;;;;;;;;5.60;86.80;;;;;;5010571;28;19987;-72
2022/11/14 08:50:26;;;;;;;;;;;5.60;86.80;;;;;;5008239;28;19921;-71
2022/11/14 08:52:52;;;;;;;;;;;5.60;86.70;;;;;;5005182;28;19928;-71
2022/11/14 08:55:18;;;;;;;;;;;5.60;86.70;;;;;;5007228;28;20393;-72
2022/11/14 08:57:43;;;;;;;;;;;5.70;86.80;;;;;;5016111;28;19925;-74
2022/11/14 09:00:09;;;;;;;;;;;5.70;86.80;;;;;;5023297;28;20646;-71
2022/11/14 09:02:34;;;;;;;;;;;5.70;86.60;;;;;;5003828;28;19918;-73
2022/11/14 09:05:00;;;;;;;;;;;5.80;86.70;;;;;;5021680;28;20451;-73
2022/11/14 09:07:25;;;;;;;;;;;5.80;86.60;;;;;;5018638;28;19933;-73
2022/11/14 09:09:51;;;;;;;;;;;5.90;86.70;;;;;;5009104;28;19921;-72
2022/11/14 09:12:16;;;;;;;;;;;5.90;86.70;;;;;;5015302;28;19921;-72
2022/11/14 09:14:42;;;;;;;;;;;5.90;86.60;;;;;;5007994;28;19930;-74
2022/11/14 09:17:07;;;;;;;;;;;5.90;86.60;;;;;;5016392;28;19968;-73
2022/11/14 09:19:33;;;;;;;;;;;6.00;86.60;;;;;;5001697;28;19929;-72
2022/11/14 09:21:58;;;;;;;;;;;6.00;87.30;;;;;;5019705;28;19917;-73
2022/11/14 09:24:24;;;;;;;;;;;6.00;86.50;;;;;;5001196;28;19967;-72
2022/11/14 09:26:50;;;;;;;;;;;6.10;86.50;;;;;;5017517;28;19917;-73
2022/11/14 09:29:17;;;;;;;;;;;6.10;86.60;;;;;;5022731;28;20625;-74
2022/11/14 09:31:43;;;;;;;;;;;6.10;87.30;;;;;;5005763;28;20389;-72
2022/11/14 09:34:08;;;;;;;;;;;6.20;86.50;;;;;;5025418;28;19931;-71
2022/11/14 09:36:34;;;;;;;;;;;6.20;86.50;;;;;;5022925;28;19917;-72
2022/11/14 09:38:59;;;;;;;;;;;6.30;86.50;;;;;;5018817;28;19987;-73
2022/11/14 09:41:25;;;;;;;;;;;6.30;86.50;;;;;;5000526;28;19918;-73
2022/11/14 09:43:57;;;;;;;;;;;6.30;86.40;;;;;;5022813;28;19921;-73
2022/11/14 09:46:23;;;;;;;;;;;6.40;86.50;;;;;;5017157;28;20003;-72
2022/11/14 09:48:49;;;;;;;;;;;6.40;86.50;;;;;;5021231;28;19925;-74
2022/11/14 09:51:15;;;;;;;;;;;6.40;86.40;;;;;;5003155;28;19927;-73
2022/11/14 09:53:41;;;;;;;;;;;6.50;86.40;;;;;;5001976;28;19967;-73
2022/11/14 09:56:08;;;;;;;;;;;6.50;86.30;;;;;;5025010;28;19948;-73
2022/11/14 09:58:34;;;;;;;;;;;6.60;86.40;;;;;;4993916;28;20001;-74
2022/11/14 10:01:04;;;;;;;;;;;6.60;86.40;;;;;;5020429;28;19917;-71
2022/11/14 10:03:37;;;;;;;;;;;6.60;86.30;;;;;;5001537;28;20345;-72
2022/11/14 10:06:03;;;;;;;;;;;6.70;86.30;;;;;;4987302;28;19917;-72
2022/11/14 10:08:28;;;;;;;;;;;6.70;86.30;;;;;;5016654;28;19925;-73
2022/11/14 10:11:12;;;;;;;;;;;6.70;86.30;;;;;;5022033;28;20328;-73
2022/11/14 10:13:44;;;;;;;;;;;6.70;86.10;;;;;;5003215;28;20321;-73
2022/11/14 10:16:12;;;;;;;;;;;6.80;86.20;;;;;;5004855;28;20011;-72
2022/11/14 10:18:41;;;;;;;;;;;6.80;86.10;;;;;;5014502;28;19917;-73
2022/11/14 10:21:22;;;;;;;;;;;6.80;86.10;;;;;;5020340;28;20551;-74
2022/11/14 10:23:47;;;;;;;;;;;6.80;86.10;;;;;;5007512;28;19952;-73
2022/11/14 10:26:14;;;;;;;;;;;6.80;86.00;;;;;;5024423;28;20413;-72
2022/11/14 10:28:40;;;;;;;;;;;6.90;86.10;;;;;;4990139;28;19917;-73
2022/11/14 10:31:14;;;;;;;;;;;6.90;86.10;;;;;;5012828;28;19925;-73
2022/11/14 10:34:03;;;;;;;;;;;6.90;86.10;;;;;;5018493;28;19956;-73
2022/11/14 10:36:42;;;;;;;;;;;6.90;86.00;;;;;;5005634;28;19928;-73
2022/11/14 10:39:14;;;;;;;;;;;7.00;86.10;;;;;;5009294;28;19932;-73
2022/11/14 10:41:39;;;;;;;;;;;7.00;86.10;;;;;;5017082;28;19925;-73
2022/11/14 10:44:07;;;;;;;;;;;7.00;86.00;;;;;;5003354;28;19984;-73
2022/11/14 10:46:35;;;;;;;;;;;7.10;86.00;;;;;;5006154;28;19917;-73
2022/11/14 10:49:01;;;;;;;;;;;7.10;86.00;;;;;;5006437;28;19964;-73
2022/11/14 10:51:39;;;;;;;;;;;7.10;85.90;;;;;;5018379;28;19944;-73
2022/11/14 10:54:06;;;;;;;;;;;7.20;86.00;;;;;;5015916;28;19922;-72
2022/11/14 10:56:31;;;;;;;;;;;7.20;85.90;;;;;;5005086;28;19932;-73
2022/11/14 10:58:57;;;;;;;;;;;7.20;85.90;;;;;;5017321;28;20328;-74
2022/11/14 11:01:37;;;;;;;;;;;7.20;85.90;;;;;;5016184;28;19925;-73
2022/11/14 11:04:14;;;;;;;;;;;7.30;86.00;;;;;;5018121;28;19928;-73
2022/11/14 11:06:39;;;;;;;;;;;7.30;85.90;;;;;;5018906;28;19931;-73
2022/11/14 11:12:00;;;;;;;;;;;7.40;85.90;;;;;;5004978;28;20442;-73
2022/11/14 11:14:25;;;;;;;;;;;7.50;85.90;;;;;;5014397;28;19918;-73
2022/11/14 11:17:06;;;;;;;;;;;7.50;85.90;;;;;;5009650;28;19943;-73
2022/11/14 11:19:31;;;;;;;;;;;7.50;85.80;;;;;;5006148;28;19934;-73
2022/11/14 11:21:57;;;;;;;;;;;7.60;85.90;;;;;;5019354;28;19924;-73
2022/11/14 11:24:32;;;;;;;;;;;7.60;85.80;;;;;;5006371;28;19925;-72
2022/11/14 11:27:19;;;;;;;;;;;7.60;85.80;;;;;;5002885;28;19933;-71
2022/11/14 11:29:44;;;;;;;;;;;7.70;85.80;;;;;;5018197;28;20012;-72
2022/11/14 11:32:10;;;;;;;;;;;7.80;85.70;;;;;;5015481;28;20059;-72
2022/11/14 11:34:35;;;;;;;;;;;7.80;85.70;;;;;;4987438;28;19928;-75
2022/11/14 11:37:05;;;;;;;;;;;7.80;85.70;;;;;;5025026;28;20385;-74
2022/11/14 11:39:32;;;;;;;;;;;7.80;85.60;;;;;;5012106;28;19921;-74
2022/11/14 11:41:58;;;;;;;;;;;7.90;85.60;;;;;;5010539;28;19917;-74
2022/11/14 11:44:26;;;;;;;;;;;7.90;85.50;;;;;;5014233;28;20645;-74
2022/11/14 11:46:59;;;;;;;;;;;7.90;85.50;;;;;;5028398;28;20334;-75
2022/11/14 11:49:43;;;;;;;;;;;8.00;85.60;;;;;;5028716;28;19921;-74
2022/11/14 11:52:15;;;;;;;;;;;8.00;85.50;;;;;;5028569;28;19928;-73
2022/11/14 11:54:58;;;;;;;;;;;8.10;85.60;;;;;;4994434;28;19924;-73
2022/11/14 11:57:28;;;;;;;;;;;8.20;85.50;;;;;;5017341;28;20328;-74
2022/11/14 11:59:57;;;;;;;;;;;8.20;85.50;;;;;;5012399;28;19951;-74
2022/11/14 12:02:23;;;;;;;;;;;8.30;85.50;;;;;;5014231;28;20305;-73
2022/11/14 12:04:48;;;;;;;;;;;8.30;85.40;;;;;;5030912;28;19929;-73
2022/11/14 12:07:21;;;;;;;;;;;8.40;85.40;;;;;;5014596;28;19928;-73
2022/11/14 12:09:47;;;;;;;;;;;8.40;85.30;;;;;;5019282;28;19971;-73
2022/11/14 12:12:21;;;;;;;;;;;8.40;85.30;;;;;;5007413;28;19921;-73
2022/11/14 12:15:05;;;;;;;;;;;8.40;85.20;;;;;;5027244;28;19925;-72
2022/11/14 12:17:49;;;;;;;;;;;8.50;85.30;;;;;;5026370;28;19926;-74
2022/11/14 12:20:34;;;;;;;;;;;8.60;85.20;;;;;;5001680;28;20016;-74
2022/11/14 12:23:10;;;;;;;;;;;8.60;85.20;;;;;;5012921;28;19941;-73
2022/11/14 12:25:54;;;;;;;;;;;8.60;85.20;;;;;;5001589;28;19918;-73
2022/11/14 12:28:49;;;;;;;;;;;8.60;85.10;;;;;;5009633;28;20421;-73
2022/11/14 12:31:15;;;;;;;;;;;8.70;85.10;;;;;;4998306;28;20593;-74
2022/11/14 12:34:00;;;;;;;;;;;8.70;85.10;;;;;;4996208;28;19926;-73
2022/11/14 12:36:29;;;;;;;;;;;8.70;85.00;;;;;;4995694;28;20401;-74
2022/11/14 12:38:54;;;;;;;;;;;8.80;85.00;;;;;;5016107;28;20015;-73
2022/11/14 12:41:29;;;;;;;;;;;8.80;85.00;;;;;;5010148;28;19941;-74
2022/11/14 12:44:14;;;;;;;;;;;8.80;85.00;;;;;;4995512;28;19921;-73
2022/11/14 12:46:58;;;;;;;;;;;8.80;84.90;;;;;;5009744;28;19918;-72
2022/11/14 12:49:44;;;;;;;;;;;8.90;85.00;;;;;;5011000;28;19921;-73
2022/11/14 12:52:28;;;;;;;;;;;8.90;85.00;;;;;;4999958;28;19921;-72
2022/11/14 12:54:53;;;;;;;;;;;8.90;84.90;;;;;;5009943;28;19952;-74
2022/11/14 12:57:46;;;;;;;;;;;8.90;85.00;;;;;;4997124;28;20318;-73
2022/11/14 13:00:06;;;;;;;;;;;8.90;84.90;;;;;;5024488;28;19921;-73
2022/11/14 13:02:35;;;;;;;;;;;9.00;84.90;;;;;;4996168;28;19968;-74
2022/11/14 13:05:16;;;;;;;;;;;9.00;84.90;;;;;;5027326;28;20352;-73
2022/11/14 13:07:47;;;;;;;;;;;9.00;84.80;;;;;;4992968;28;19955;-73
2022/11/14 13:10:13;;;;;;;;;;;9.10;84.90;;;;;;5008591;28;20178;-73
2022/11/14 13:23:46;;;;;;;;;;;9.30;84.80;;;;;;4996195;28;20603;-74
2022/11/14 13:26:12;;;;;;;;;;;9.40;84.80;;;;;;5015672;28;19925;-74
2022/11/14 13:28:38;;;;;;;;;;;9.40;84.70;;;;;;5011332;28;19972;-73
2022/11/14 13:31:04;;;;;;;;;;;9.50;84.60;;;;;;5013892;28;19922;-73
2022/11/14 13:33:45;;;;;;;;;;;9.50;84.60;;;;;;4993598;28;20442;-72
2022/11/14 13:36:19;;;;;;;;;;;9.50;84.50;;;;;;4982101;28;20309;-73
2022/11/14 13:39:05;;;;;;;;;;;9.60;84.50;;;;;;5010263;28;19957;-74
2022/11/14 13:41:37;;;;;;;;;;;9.60;84.60;;;;;;4998794;28;20012;-73
2022/11/14 13:44:03;;;;;;;;;;;9.60;84.60;;;;;;5008968;28;19949;-73
2022/11/14 13:46:28;;;;;;;;;;;9.60;84.50;;;;;;5012307;28;19991;-74
2022/11/14 13:49:00;;;;;;;;;;;9.70;84.60;;;;;;5011573;28;19917;-72
2022/11/14 13:51:25;;;;;;;;;;;9.80;84.60;;;;;;5007552;28;19952;-73
2022/11/14 13:53:51;;;;;;;;;;;9.80;84.50;;;;;;4995421;28;20574;-73
2022/11/14 13:56:33;;;;;;;;;;;9.90;84.40;;;;;;5008838;28;19932;-72
2022/11/14 13:59:24;;;;;;;;;;;9.90;84.30;;;;;;4989916;28;19928;-74
2022/11/14 14:02:05;;;;;;;;;;;9.90;84.30;;;;;;4974093;28;20012;-74
2022/11/14 14:04:31;;;;;;;;;;;10.00;84.30;;;;;;4985791;28;19932;-72
2022/11/14 14:07:02;;;;;;;;;;;10.10;84.20;;;;;;5010897;28;19917;-74
2022/11/14 14:09:47;;;;;;;;;;;10.10;84.10;;;;;;5006325;28;20370;-73
2022/11/14 14:12:27;;;;;;;;;;;10.10;84.10;;;;;;4987922;28;19937;-72
2022/11/14 14:14:52;;;;;;;;;;;10.10;84.00;;;;;;5001407;28;20446;-74
2022/11/14 14:17:22;;;;;;;;;;;10.00;84.00;;;;;;4989601;28;19918;-72
2022/11/14 14:19:57;;;;;;;;;;;9.90;84.00;;;;;;4993892;28;19982;-72
2022/11/14 14:22:32;;;;;;;;;;;9.90;84.00;;;;;;5003979;28;19924;-72
2022/11/14 14:25:03;;;;;;;;;;;9.90;84.00;;;;;;5017843;28;20506;-73
2022/11/14 14:27:48;;;;;;;;;;;9.80;84.00;;;;;;5025679;28;19929;-72
2022/11/14 14:30:14;;;;;;;;;;;9.80;84.10;;;;;;5024147;28;20292;-73
2022/11/14 14:32:40;;;;;;;;;;;9.80;84.10;;;;;;4984691;28;19929;-74
2022/11/14 14:35:35;;;;;;;;;;;9.70;84.10;;;;;;5009279;28;19922;-72
2022/11/14 14:38:00;;;;;;;;;;;9.70;84.20;;;;;;5008781;28;19913;-72
2022/11/14 14:40:35;;;;;;;;;;;9.60;84.10;;;;;;5002227;28;19948;-72
2022/11/14 14:43:01;;;;;;;;;;;9.60;84.20;;;;;;5004468;28;19917;-73
2022/11/14 14:45:27;;;;;;;;;;;9.60;84.30;;;;;;4988490;28;20377;-72